sensor_id;sensor_type;location;lat;lon;timestamp;P1;durP1;ratioP1;P2;durP2;ratioP2
71108;SDS011;59614;51.012;-1.648;2023-07-13T00:01:45;12.75;;;3.53;;
71108;SDS011;59614;51.012;-1.648;2023-07-13T00:04:18;10.95;;;3.70;;
71108;SDS011;59614;51.012;-1.648;2023-07-13T00:06:46;10.73;;;3.55;;
71108;SDS011;59614;51.012;-1.648;2023-07-13T00:09:15;10.25;;;3.47;;
71108;SDS011;59614;51.012;-1.648;2023-07-13T00:11:42;9.05;;;3.13;;
71108;SDS011;59614;51.012;-1.648;2023-07-13T00:14:08;9.43;;;3.85;;
71108;SDS011;59614;51.012;-1.648;2023-07-13T00:16:35;14.50;;;3.70;;
71108;SDS011;59614;51.012;-1.648;2023-07-13T00:19:02;7.43;;;3.17;;
71108;SDS011;59614;51.012;-1.648;2023-07-13T00:21:27;11.77;;;3.40;;
71108;SDS011;59614;51.012;-1.648;2023-07-13T00:23:53;11.38;;;3.60;;
71108;SDS011;59614;51.012;-1.648;2023-07-13T00:26:18;8.63;;;3.40;;
71108;SDS011;59614;51.012;-1.648;2023-07-13T00:28:44;10.77;;;3.25;;
71108;SDS011;59614;51.012;-1.648;2023-07-13T00:31:10;11.45;;;3.70;;
71108;SDS011;59614;51.012;-1.648;2023-07-13T00:33:37;11.52;;;3.40;;
71108;SDS011;59614;51.012;-1.648;2023-07-13T00:36:02;14.38;;;3.75;;
71108;SDS011;59614;51.012;-1.648;2023-07-13T00:38:29;8.25;;;3.28;;
71108;SDS011;59614;51.012;-1.648;2023-07-13T00:40:55;15.70;;;3.78;;
71108;SDS011;59614;51.012;-1.648;2023-07-13T00:43:21;8.30;;;3.47;;
71108;SDS011;59614;51.012;-1.648;2023-07-13T00:48:14;13.48;;;3.35;;
71108;SDS011;59614;51.012;-1.648;2023-07-13T00:50:45;12.85;;;3.58;;
71108;SDS011;59614;51.012;-1.648;2023-07-13T00:53:13;10.57;;;3.47;;
71108;SDS011;59614;51.012;-1.648;2023-07-13T00:55:39;12.25;;;3.67;;
71108;SDS011;59614;51.012;-1.648;2023-07-13T00:58:05;12.60;;;3.30;;
71108;SDS011;59614;51.012;-1.648;2023-07-13T01:00:31;9.50;;;3.60;;
71108;SDS011;59614;51.012;-1.648;2023-07-13T01:03:01;13.90;;;3.50;;
71108;SDS011;59614;51.012;-1.648;2023-07-13T01:05:29;11.55;;;3.08;;
71108;SDS011;59614;51.012;-1.648;2023-07-13T01:07:57;14.30;;;3.67;;
71108;SDS011;59614;51.012;-1.648;2023-07-13T01:10:23;14.93;;;3.35;;
71108;SDS011;59614;51.012;-1.648;2023-07-13T01:12:49;8.43;;;3.30;;
71108;SDS011;59614;51.012;-1.648;2023-07-13T01:18:08;9.85;;;2.70;;
71108;SDS011;59614;51.012;-1.648;2023-07-13T01:20:36;8.25;;;2.92;;
71108;SDS011;59614;51.012;-1.648;2023-07-13T01:23:05;13.60;;;3.60;;
71108;SDS011;59614;51.012;-1.648;2023-07-13T01:25:34;10.80;;;3.50;;
71108;SDS011;59614;51.012;-1.648;2023-07-13T01:28:01;9.40;;;3.10;;
71108;SDS011;59614;51.012;-1.648;2023-07-13T01:30:28;10.25;;;3.50;;
71108;SDS011;59614;51.012;-1.648;2023-07-13T01:32:54;11.80;;;3.33;;
71108;SDS011;59614;51.012;-1.648;2023-07-13T01:35:19;14.32;;;3.40;;
71108;SDS011;59614;51.012;-1.648;2023-07-13T01:37:45;9.98;;;2.90;;
71108;SDS011;59614;51.012;-1.648;2023-07-13T01:40:11;14.82;;;4.07;;
71108;SDS011;59614;51.012;-1.648;2023-07-13T01:42:37;11.70;;;3.35;;
71108;SDS011;59614;51.012;-1.648;2023-07-13T01:45:03;11.15;;;3.80;;
71108;SDS011;59614;51.012;-1.648;2023-07-13T01:47:29;11.30;;;3.72;;
71108;SDS011;59614;51.012;-1.648;2023-07-13T01:49:56;10.57;;;4.10;;
71108;SDS011;59614;51.012;-1.648;2023-07-13T01:52:21;7.55;;;3.35;;
71108;SDS011;59614;51.012;-1.648;2023-07-13T01:54:47;12.50;;;4.18;;
71108;SDS011;59614;51.012;-1.648;2023-07-13T01:57:12;7.65;;;3.45;;
71108;SDS011;59614;51.012;-1.648;2023-07-13T01:59:38;9.38;;;3.42;;
71108;SDS011;59614;51.012;-1.648;2023-07-13T02:02:03;10.90;;;3.70;;
71108;SDS011;59614;51.012;-1.648;2023-07-13T02:04:29;8.88;;;3.88;;
71108;SDS011;59614;51.012;-1.648;2023-07-13T02:06:54;12.00;;;3.58;;
71108;SDS011;59614;51.012;-1.648;2023-07-13T02:09:20;12.43;;;3.72;;
71108;SDS011;59614;51.012;-1.648;2023-07-13T02:11:46;11.35;;;3.40;;
71108;SDS011;59614;51.012;-1.648;2023-07-13T02:14:11;9.32;;;3.70;;
71108;SDS011;59614;51.012;-1.648;2023-07-13T02:16:37;6.78;;;3.10;;
71108;SDS011;59614;51.012;-1.648;2023-07-13T02:19:02;10.98;;;3.47;;
71108;SDS011;59614;51.012;-1.648;2023-07-13T02:21:27;10.10;;;3.40;;
71108;SDS011;59614;51.012;-1.648;2023-07-13T02:23:54;7.97;;;3.20;;
71108;SDS011;59614;51.012;-1.648;2023-07-13T02:26:20;8.40;;;3.50;;
71108;SDS011;59614;51.012;-1.648;2023-07-13T02:28:45;9.52;;;3.10;;
71108;SDS011;59614;51.012;-1.648;2023-07-13T02:31:12;6.75;;;3.42;;
71108;SDS011;59614;51.012;-1.648;2023-07-13T02:33:39;11.40;;;3.60;;
71108;SDS011;59614;51.012;-1.648;2023-07-13T02:36:05;10.10;;;3.30;;
71108;SDS011;59614;51.012;-1.648;2023-07-13T02:38:32;6.75;;;3.38;;
71108;SDS011;59614;51.012;-1.648;2023-07-13T02:40:59;10.50;;;3.33;;
71108;SDS011;59614;51.012;-1.648;2023-07-13T02:43:25;10.05;;;3.50;;
71108;SDS011;59614;51.012;-1.648;2023-07-13T02:45:50;8.30;;;3.15;;
71108;SDS011;59614;51.012;-1.648;2023-07-13T02:48:16;10.48;;;3.05;;
71108;SDS011;59614;51.012;-1.648;2023-07-13T02:50:42;7.55;;;2.70;;
71108;SDS011;59614;51.012;-1.648;2023-07-13T02:53:09;6.03;;;3.08;;
71108;SDS011;59614;51.012;-1.648;2023-07-13T02:55:35;9.82;;;3.20;;
71108;SDS011;59614;51.012;-1.648;2023-07-13T02:58:00;6.50;;;3.03;;
71108;SDS011;59614;51.012;-1.648;2023-07-13T03:00:26;8.38;;;3.10;;
71108;SDS011;59614;51.012;-1.648;2023-07-13T03:02:52;7.13;;;3.40;;
71108;SDS011;59614;51.012;-1.648;2023-07-13T03:05:18;8.38;;;3.50;;
71108;SDS011;59614;51.012;-1.648;2023-07-13T03:07:43;8.65;;;3.50;;
71108;SDS011;59614;51.012;-1.648;2023-07-13T03:10:09;9.52;;;3.35;;
71108;SDS011;59614;51.012;-1.648;2023-07-13T03:12:35;9.63;;;3.28;;
71108;SDS011;59614;51.012;-1.648;2023-07-13T03:15:00;9.75;;;3.67;;
71108;SDS011;59614;51.012;-1.648;2023-07-13T03:17:26;9.20;;;3.13;;
71108;SDS011;59614;51.012;-1.648;2023-07-13T03:19:51;9.40;;;3.30;;
71108;SDS011;59614;51.012;-1.648;2023-07-13T03:22:17;11.18;;;3.20;;
71108;SDS011;59614;51.012;-1.648;2023-07-13T03:24:43;8.48;;;3.28;;
71108;SDS011;59614;51.012;-1.648;2023-07-13T03:27:09;10.13;;;3.15;;
71108;SDS011;59614;51.012;-1.648;2023-07-13T03:29:34;9.48;;;3.20;;
71108;SDS011;59614;51.012;-1.648;2023-07-13T03:32:00;6.63;;;2.90;;
71108;SDS011;59614;51.012;-1.648;2023-07-13T03:34:25;11.65;;;3.55;;
71108;SDS011;59614;51.012;-1.648;2023-07-13T03:36:53;10.75;;;3.45;;
71108;SDS011;59614;51.012;-1.648;2023-07-13T03:39:19;10.07;;;2.88;;
71108;SDS011;59614;51.012;-1.648;2023-07-13T03:41:45;11.55;;;3.08;;
71108;SDS011;59614;51.012;-1.648;2023-07-13T03:44:11;9.55;;;3.03;;
71108;SDS011;59614;51.012;-1.648;2023-07-13T03:46:36;5.45;;;2.85;;
71108;SDS011;59614;51.012;-1.648;2023-07-13T03:49:03;8.43;;;3.08;;
71108;SDS011;59614;51.012;-1.648;2023-07-13T03:51:30;8.98;;;3.40;;
71108;SDS011;59614;51.012;-1.648;2023-07-13T03:53:55;9.70;;;3.08;;
71108;SDS011;59614;51.012;-1.648;2023-07-13T03:56:21;9.00;;;2.97;;
71108;SDS011;59614;51.012;-1.648;2023-07-13T03:58:47;6.30;;;2.83;;
71108;SDS011;59614;51.012;-1.648;2023-07-13T04:01:15;9.30;;;3.28;;
71108;SDS011;59614;51.012;-1.648;2023-07-13T04:03:41;5.88;;;2.90;;
71108;SDS011;59614;51.012;-1.648;2023-07-13T04:06:08;7.93;;;3.55;;
71108;SDS011;59614;51.012;-1.648;2023-07-13T04:08:40;7.50;;;3.17;;
71108;SDS011;59614;51.012;-1.648;2023-07-13T04:11:06;12.00;;;3.10;;
71108;SDS011;59614;51.012;-1.648;2023-07-13T04:13:31;9.45;;;3.08;;
71108;SDS011;59614;51.012;-1.648;2023-07-13T04:15:58;10.52;;;3.08;;
71108;SDS011;59614;51.012;-1.648;2023-07-13T04:18:23;8.30;;;2.97;;
71108;SDS011;59614;51.012;-1.648;2023-07-13T04:20:49;9.18;;;3.30;;
71108;SDS011;59614;51.012;-1.648;2023-07-13T04:23:16;10.00;;;3.20;;
71108;SDS011;59614;51.012;-1.648;2023-07-13T04:25:45;7.63;;;3.33;;
71108;SDS011;59614;51.012;-1.648;2023-07-13T04:28:14;6.28;;;3.10;;
71108;SDS011;59614;51.012;-1.648;2023-07-13T04:30:43;7.15;;;2.95;;
71108;SDS011;59614;51.012;-1.648;2023-07-13T04:33:09;6.30;;;2.95;;
71108;SDS011;59614;51.012;-1.648;2023-07-13T04:35:35;7.85;;;3.15;;
71108;SDS011;59614;51.012;-1.648;2023-07-13T04:38:01;6.40;;;3.10;;
71108;SDS011;59614;51.012;-1.648;2023-07-13T04:40:27;7.53;;;2.90;;
71108;SDS011;59614;51.012;-1.648;2023-07-13T04:42:53;8.98;;;3.33;;
71108;SDS011;59614;51.012;-1.648;2023-07-13T04:45:19;8.55;;;3.25;;
71108;SDS011;59614;51.012;-1.648;2023-07-13T04:47:44;8.93;;;3.10;;
71108;SDS011;59614;51.012;-1.648;2023-07-13T04:50:12;9.10;;;3.72;;
71108;SDS011;59614;51.012;-1.648;2023-07-13T04:52:40;5.97;;;3.10;;
71108;SDS011;59614;51.012;-1.648;2023-07-13T04:55:07;6.63;;;3.00;;
71108;SDS011;59614;51.012;-1.648;2023-07-13T04:57:33;7.60;;;3.17;;
71108;SDS011;59614;51.012;-1.648;2023-07-13T04:59:58;9.60;;;3.20;;
71108;SDS011;59614;51.012;-1.648;2023-07-13T05:02:26;8.95;;;3.25;;
71108;SDS011;59614;51.012;-1.648;2023-07-13T05:04:53;7.40;;;3.30;;
71108;SDS011;59614;51.012;-1.648;2023-07-13T05:07:18;9.85;;;3.55;;
71108;SDS011;59614;51.012;-1.648;2023-07-13T05:09:44;10.32;;;3.40;;
71108;SDS011;59614;51.012;-1.648;2023-07-13T05:12:09;8.05;;;3.17;;
71108;SDS011;59614;51.012;-1.648;2023-07-13T05:14:35;8.90;;;3.58;;
71108;SDS011;59614;51.012;-1.648;2023-07-13T05:17:00;10.52;;;3.17;;
71108;SDS011;59614;51.012;-1.648;2023-07-13T05:19:26;6.63;;;3.53;;
71108;SDS011;59614;51.012;-1.648;2023-07-13T05:21:51;11.77;;;3.50;;
71108;SDS011;59614;51.012;-1.648;2023-07-13T05:24:17;10.25;;;3.58;;
71108;SDS011;59614;51.012;-1.648;2023-07-13T05:26:43;7.88;;;2.95;;
71108;SDS011;59614;51.012;-1.648;2023-07-13T05:29:08;8.50;;;3.50;;
71108;SDS011;59614;51.012;-1.648;2023-07-13T05:31:34;9.55;;;3.20;;
71108;SDS011;59614;51.012;-1.648;2023-07-13T05:33:59;9.90;;;3.65;;
71108;SDS011;59614;51.012;-1.648;2023-07-13T05:36:25;12.35;;;3.38;;
71108;SDS011;59614;51.012;-1.648;2023-07-13T05:38:50;7.55;;;3.50;;
71108;SDS011;59614;51.012;-1.648;2023-07-13T05:41:15;7.13;;;3.38;;
71108;SDS011;59614;51.012;-1.648;2023-07-13T05:43:41;10.50;;;3.67;;
71108;SDS011;59614;51.012;-1.648;2023-07-13T05:46:06;5.32;;;2.90;;
71108;SDS011;59614;51.012;-1.648;2023-07-13T05:48:32;5.85;;;2.63;;
71108;SDS011;59614;51.012;-1.648;2023-07-13T05:50:57;10.23;;;3.10;;
71108;SDS011;59614;51.012;-1.648;2023-07-13T05:53:23;6.75;;;2.80;;
71108;SDS011;59614;51.012;-1.648;2023-07-13T05:55:49;6.03;;;3.03;;
71108;SDS011;59614;51.012;-1.648;2023-07-13T05:58:18;8.25;;;2.90;;
71108;SDS011;59614;51.012;-1.648;2023-07-13T06:00:44;7.57;;;3.22;;
71108;SDS011;59614;51.012;-1.648;2023-07-13T06:03:09;10.43;;;3.38;;
71108;SDS011;59614;51.012;-1.648;2023-07-13T06:05:35;7.60;;;3.05;;
71108;SDS011;59614;51.012;-1.648;2023-07-13T06:10:28;5.22;;;2.97;;
71108;SDS011;59614;51.012;-1.648;2023-07-13T06:12:57;9.55;;;2.90;;
71108;SDS011;59614;51.012;-1.648;2023-07-13T06:15:22;7.88;;;2.88;;
71108;SDS011;59614;51.012;-1.648;2023-07-13T06:17:47;6.25;;;2.80;;
71108;SDS011;59614;51.012;-1.648;2023-07-13T06:20:13;10.73;;;3.72;;
71108;SDS011;59614;51.012;-1.648;2023-07-13T06:22:38;8.45;;;3.25;;
71108;SDS011;59614;51.012;-1.648;2023-07-13T06:25:04;9.05;;;3.35;;
71108;SDS011;59614;51.012;-1.648;2023-07-13T06:27:30;4.55;;;2.70;;
71108;SDS011;59614;51.012;-1.648;2023-07-13T06:29:55;12.38;;;3.30;;
71108;SDS011;59614;51.012;-1.648;2023-07-13T06:32:21;12.80;;;3.33;;
71108;SDS011;59614;51.012;-1.648;2023-07-13T06:34:46;9.73;;;3.00;;
71108;SDS011;59614;51.012;-1.648;2023-07-13T06:37:12;9.40;;;3.47;;
71108;SDS011;59614;51.012;-1.648;2023-07-13T06:39:37;15.25;;;3.45;;
71108;SDS011;59614;51.012;-1.648;2023-07-13T06:42:03;15.23;;;3.35;;
71108;SDS011;59614;51.012;-1.648;2023-07-13T06:44:29;9.40;;;3.10;;
71108;SDS011;59614;51.012;-1.648;2023-07-13T06:46:55;7.70;;;3.20;;
71108;SDS011;59614;51.012;-1.648;2023-07-13T06:49:20;14.45;;;3.63;;
71108;SDS011;59614;51.012;-1.648;2023-07-13T06:51:45;9.27;;;3.22;;
71108;SDS011;59614;51.012;-1.648;2023-07-13T06:54:11;12.00;;;3.45;;
71108;SDS011;59614;51.012;-1.648;2023-07-13T06:56:36;10.90;;;3.47;;
71108;SDS011;59614;51.012;-1.648;2023-07-13T06:59:02;7.45;;;3.08;;
71108;SDS011;59614;51.012;-1.648;2023-07-13T07:01:27;7.05;;;2.92;;
71108;SDS011;59614;51.012;-1.648;2023-07-13T07:03:53;10.60;;;3.05;;
71108;SDS011;59614;51.012;-1.648;2023-07-13T07:06:21;8.30;;;2.92;;
71108;SDS011;59614;51.012;-1.648;2023-07-13T07:08:51;11.73;;;3.88;;
71108;SDS011;59614;51.012;-1.648;2023-07-13T07:11:18;10.85;;;3.15;;
71108;SDS011;59614;51.012;-1.648;2023-07-13T07:13:47;18.25;;;3.75;;
71108;SDS011;59614;51.012;-1.648;2023-07-13T07:16:13;9.77;;;3.40;;
71108;SDS011;59614;51.012;-1.648;2023-07-13T07:18:38;10.95;;;3.22;;
71108;SDS011;59614;51.012;-1.648;2023-07-13T07:21:04;9.52;;;3.00;;
71108;SDS011;59614;51.012;-1.648;2023-07-13T07:23:29;10.60;;;3.00;;
71108;SDS011;59614;51.012;-1.648;2023-07-13T07:25:55;12.45;;;3.22;;
71108;SDS011;59614;51.012;-1.648;2023-07-13T07:28:20;12.30;;;3.38;;
71108;SDS011;59614;51.012;-1.648;2023-07-13T07:30:46;9.65;;;3.00;;
71108;SDS011;59614;51.012;-1.648;2023-07-13T07:33:13;12.95;;;3.42;;
71108;SDS011;59614;51.012;-1.648;2023-07-13T07:35:39;7.38;;;3.05;;
71108;SDS011;59614;51.012;-1.648;2023-07-13T07:38:05;8.50;;;2.85;;
71108;SDS011;59614;51.012;-1.648;2023-07-13T07:40:30;8.25;;;2.97;;
71108;SDS011;59614;51.012;-1.648;2023-07-13T07:42:56;15.13;;;3.50;;
71108;SDS011;59614;51.012;-1.648;2023-07-13T07:45:22;7.18;;;2.88;;
71108;SDS011;59614;51.012;-1.648;2023-07-13T07:47:47;9.57;;;3.25;;
71108;SDS011;59614;51.012;-1.648;2023-07-13T07:50:13;8.68;;;2.67;;
71108;SDS011;59614;51.012;-1.648;2023-07-13T07:52:38;8.40;;;2.80;;
71108;SDS011;59614;51.012;-1.648;2023-07-13T07:55:05;9.30;;;2.95;;
71108;SDS011;59614;51.012;-1.648;2023-07-13T07:57:32;14.75;;;3.40;;
71108;SDS011;59614;51.012;-1.648;2023-07-13T07:59:57;10.35;;;3.35;;
71108;SDS011;59614;51.012;-1.648;2023-07-13T08:02:24;10.73;;;2.90;;
71108;SDS011;59614;51.012;-1.648;2023-07-13T08:04:49;9.23;;;2.85;;
71108;SDS011;59614;51.012;-1.648;2023-07-13T08:07:15;9.57;;;2.72;;
71108;SDS011;59614;51.012;-1.648;2023-07-13T08:09:40;9.32;;;2.63;;
71108;SDS011;59614;51.012;-1.648;2023-07-13T08:12:06;11.52;;;2.88;;
71108;SDS011;59614;51.012;-1.648;2023-07-13T08:14:32;8.70;;;2.70;;
71108;SDS011;59614;51.012;-1.648;2023-07-13T08:16:58;8.57;;;2.90;;
71108;SDS011;59614;51.012;-1.648;2023-07-13T08:19:23;11.18;;;3.33;;
71108;SDS011;59614;51.012;-1.648;2023-07-13T08:21:48;8.57;;;2.50;;
71108;SDS011;59614;51.012;-1.648;2023-07-13T08:24:14;10.65;;;2.67;;
71108;SDS011;59614;51.012;-1.648;2023-07-13T08:26:40;7.70;;;2.40;;
71108;SDS011;59614;51.012;-1.648;2023-07-13T08:29:06;9.65;;;2.65;;
71108;SDS011;59614;51.012;-1.648;2023-07-13T08:31:31;11.23;;;2.85;;
71108;SDS011;59614;51.012;-1.648;2023-07-13T08:33:57;10.68;;;2.63;;
71108;SDS011;59614;51.012;-1.648;2023-07-13T08:36:22;7.90;;;2.30;;
71108;SDS011;59614;51.012;-1.648;2023-07-13T08:38:47;5.60;;;2.20;;
71108;SDS011;59614;51.012;-1.648;2023-07-13T08:41:17;6.03;;;2.25;;
71108;SDS011;59614;51.012;-1.648;2023-07-13T08:43:45;6.28;;;2.35;;
71108;SDS011;59614;51.012;-1.648;2023-07-13T08:48:46;8.77;;;2.47;;
71108;SDS011;59614;51.012;-1.648;2023-07-13T08:51:35;5.88;;;2.00;;
71108;SDS011;59614;51.012;-1.648;2023-07-13T08:54:18;7.50;;;2.40;;
71108;SDS011;59614;51.012;-1.648;2023-07-13T08:56:48;6.22;;;2.10;;
71108;SDS011;59614;51.012;-1.648;2023-07-13T08:59:18;9.38;;;2.20;;
71108;SDS011;59614;51.012;-1.648;2023-07-13T09:04:44;7.75;;;2.53;;
71108;SDS011;59614;51.012;-1.648;2023-07-13T09:09:46;7.40;;;2.55;;
71108;SDS011;59614;51.012;-1.648;2023-07-13T09:12:18;5.25;;;2.28;;
71108;SDS011;59614;51.012;-1.648;2023-07-13T09:14:49;9.70;;;2.30;;
71108;SDS011;59614;51.012;-1.648;2023-07-13T09:17:19;5.75;;;2.33;;
71108;SDS011;59614;51.012;-1.648;2023-07-13T09:22:40;5.75;;;2.13;;
71108;SDS011;59614;51.012;-1.648;2023-07-13T09:27:37;5.45;;;2.20;;
71108;SDS011;59614;51.012;-1.648;2023-07-13T09:32:39;9.68;;;2.10;;
71108;SDS011;59614;51.012;-1.648;2023-07-13T09:35:11;6.68;;;2.00;;
71108;SDS011;59614;51.012;-1.648;2023-07-13T09:37:40;4.25;;;1.65;;
71108;SDS011;59614;51.012;-1.648;2023-07-13T09:40:21;3.63;;;1.60;;
71108;SDS011;59614;51.012;-1.648;2023-07-13T09:42:55;5.43;;;1.90;;
71108;SDS011;59614;51.012;-1.648;2023-07-13T09:45:27;3.63;;;1.80;;
71108;SDS011;59614;51.012;-1.648;2023-07-13T09:48:03;6.32;;;1.88;;
71108;SDS011;59614;51.012;-1.648;2023-07-13T09:50:36;4.55;;;1.80;;
71108;SDS011;59614;51.012;-1.648;2023-07-13T09:53:02;3.35;;;1.45;;
71108;SDS011;59614;51.012;-1.648;2023-07-13T09:55:35;3.53;;;1.67;;
71108;SDS011;59614;51.012;-1.648;2023-07-13T09:58:03;2.83;;;1.65;;
71108;SDS011;59614;51.012;-1.648;2023-07-13T10:00:35;3.58;;;1.60;;
71108;SDS011;59614;51.012;-1.648;2023-07-13T10:03:05;4.65;;;1.50;;
71108;SDS011;59614;51.012;-1.648;2023-07-13T10:05:47;6.93;;;1.70;;
71108;SDS011;59614;51.012;-1.648;2023-07-13T10:08:17;5.57;;;1.75;;
71108;SDS011;59614;51.012;-1.648;2023-07-13T10:10:43;4.72;;;1.88;;
71108;SDS011;59614;51.012;-1.648;2023-07-13T10:16:16;5.85;;;1.70;;
71108;SDS011;59614;51.012;-1.648;2023-07-13T10:18:45;5.90;;;1.80;;
71108;SDS011;59614;51.012;-1.648;2023-07-13T10:21:15;5.50;;;1.60;;
71108;SDS011;59614;51.012;-1.648;2023-07-13T10:23:43;3.70;;;1.67;;
71108;SDS011;59614;51.012;-1.648;2023-07-13T10:26:15;3.80;;;1.65;;
71108;SDS011;59614;51.012;-1.648;2023-07-13T10:28:45;2.53;;;1.48;;
71108;SDS011;59614;51.012;-1.648;2023-07-13T10:31:15;4.15;;;1.70;;
71108;SDS011;59614;51.012;-1.648;2023-07-13T10:33:41;2.33;;;1.33;;
71108;SDS011;59614;51.012;-1.648;2023-07-13T10:36:51;5.13;;;1.90;;
71108;SDS011;59614;51.012;-1.648;2023-07-13T10:39:00;7.35;;;1.77;;
71108;SDS011;59614;51.012;-1.648;2023-07-13T10:41:29;3.08;;;1.33;;
71108;SDS011;59614;51.012;-1.648;2023-07-13T10:43:57;2.50;;;1.40;;
71108;SDS011;59614;51.012;-1.648;2023-07-13T10:46:24;4.80;;;1.70;;
71108;SDS011;59614;51.012;-1.648;2023-07-13T10:48:54;4.03;;;1.90;;
71108;SDS011;59614;51.012;-1.648;2023-07-13T10:51:25;2.70;;;1.52;;
71108;SDS011;59614;51.012;-1.648;2023-07-13T10:56:48;4.07;;;1.80;;
71108;SDS011;59614;51.012;-1.648;2023-07-13T10:59:33;4.95;;;1.63;;
71108;SDS011;59614;51.012;-1.648;2023-07-13T11:04:28;4.82;;;1.80;;
71108;SDS011;59614;51.012;-1.648;2023-07-13T11:07:09;6.85;;;2.15;;
71108;SDS011;59614;51.012;-1.648;2023-07-13T11:09:43;5.90;;;1.83;;
71108;SDS011;59614;51.012;-1.648;2023-07-13T11:14:44;5.32;;;2.00;;
71108;SDS011;59614;51.012;-1.648;2023-07-13T11:17:34;4.38;;;2.10;;
71108;SDS011;59614;51.012;-1.648;2023-07-13T11:20:19;6.20;;;1.83;;
71108;SDS011;59614;51.012;-1.648;2023-07-13T11:25:33;7.78;;;2.30;;
71108;SDS011;59614;51.012;-1.648;2023-07-13T11:30:40;7.28;;;2.92;;
71108;SDS011;59614;51.012;-1.648;2023-07-13T11:33:13;7.57;;;2.90;;
71108;SDS011;59614;51.012;-1.648;2023-07-13T11:36:14;10.30;;;2.80;;
71108;SDS011;59614;51.012;-1.648;2023-07-13T11:41:56;11.57;;;3.45;;
71108;SDS011;59614;51.012;-1.648;2023-07-13T11:44:25;9.93;;;2.88;;
71108;SDS011;59614;51.012;-1.648;2023-07-13T11:46:56;8.68;;;2.65;;
71108;SDS011;59614;51.012;-1.648;2023-07-13T11:49:25;5.40;;;2.35;;
71108;SDS011;59614;51.012;-1.648;2023-07-13T11:51:52;12.15;;;3.38;;
71108;SDS011;59614;51.012;-1.648;2023-07-13T11:56:55;5.25;;;2.42;;
71108;SDS011;59614;51.012;-1.648;2023-07-13T11:59:25;7.50;;;2.90;;
71108;SDS011;59614;51.012;-1.648;2023-07-13T12:01:51;6.13;;;2.70;;
71108;SDS011;59614;51.012;-1.648;2023-07-13T12:06:55;13.20;;;3.28;;
71108;SDS011;59614;51.012;-1.648;2023-07-13T12:09:23;8.02;;;3.35;;
71108;SDS011;59614;51.012;-1.648;2023-07-13T12:11:52;12.05;;;2.88;;
71108;SDS011;59614;51.012;-1.648;2023-07-13T12:14:18;10.30;;;3.08;;
71108;SDS011;59614;51.012;-1.648;2023-07-13T12:16:45;11.35;;;3.33;;
71108;SDS011;59614;51.012;-1.648;2023-07-13T12:19:22;9.15;;;3.15;;
71108;SDS011;59614;51.012;-1.648;2023-07-13T12:21:50;12.65;;;3.33;;
71108;SDS011;59614;51.012;-1.648;2023-07-13T12:26:44;7.70;;;2.67;;
71108;SDS011;59614;51.012;-1.648;2023-07-13T12:29:16;9.98;;;3.03;;
71108;SDS011;59614;51.012;-1.648;2023-07-13T12:31:45;9.15;;;3.47;;
71108;SDS011;59614;51.012;-1.648;2023-07-13T12:34:17;10.05;;;3.00;;
71108;SDS011;59614;51.012;-1.648;2023-07-13T12:36:54;10.65;;;3.10;;
71108;SDS011;59614;51.012;-1.648;2023-07-13T12:39:28;9.85;;;3.00;;
71108;SDS011;59614;51.012;-1.648;2023-07-13T12:42:14;10.15;;;3.20;;
71108;SDS011;59614;51.012;-1.648;2023-07-13T12:44:57;8.25;;;2.80;;
71108;SDS011;59614;51.012;-1.648;2023-07-13T12:47:26;10.90;;;3.30;;
71108;SDS011;59614;51.012;-1.648;2023-07-13T12:49:53;9.88;;;3.10;;
71108;SDS011;59614;51.012;-1.648;2023-07-13T12:52:28;12.20;;;3.40;;
71108;SDS011;59614;51.012;-1.648;2023-07-13T12:55:02;16.50;;;3.47;;
71108;SDS011;59614;51.012;-1.648;2023-07-13T12:57:38;11.00;;;3.33;;
71108;SDS011;59614;51.012;-1.648;2023-07-13T13:00:11;10.43;;;3.28;;
71108;SDS011;59614;51.012;-1.648;2023-07-13T13:02:49;12.10;;;3.80;;
71108;SDS011;59614;51.012;-1.648;2023-07-13T13:05:17;10.05;;;3.40;;
71108;SDS011;59614;51.012;-1.648;2023-07-13T13:07:43;7.05;;;2.88;;
71108;SDS011;59614;51.012;-1.648;2023-07-13T13:10:12;16.33;;;3.05;;
71108;SDS011;59614;51.012;-1.648;2023-07-13T13:12:39;9.13;;;2.80;;
71108;SDS011;59614;51.012;-1.648;2023-07-13T13:15:07;9.98;;;3.50;;
71108;SDS011;59614;51.012;-1.648;2023-07-13T13:17:33;14.73;;;3.45;;
71108;SDS011;59614;51.012;-1.648;2023-07-13T13:19:59;10.70;;;3.17;;
71108;SDS011;59614;51.012;-1.648;2023-07-13T13:22:25;9.02;;;3.35;;
71108;SDS011;59614;51.012;-1.648;2023-07-13T13:24:50;17.38;;;3.88;;
71108;SDS011;59614;51.012;-1.648;2023-07-13T13:27:20;8.50;;;3.20;;
71108;SDS011;59614;51.012;-1.648;2023-07-13T13:29:49;10.65;;;3.33;;
71108;SDS011;59614;51.012;-1.648;2023-07-13T13:32:16;19.27;;;4.70;;
71108;SDS011;59614;51.012;-1.648;2023-07-13T13:34:42;10.15;;;3.70;;
71108;SDS011;59614;51.012;-1.648;2023-07-13T13:37:16;9.02;;;3.30;;
71108;SDS011;59614;51.012;-1.648;2023-07-13T13:39:46;12.70;;;3.67;;
71108;SDS011;59614;51.012;-1.648;2023-07-13T13:42:12;9.48;;;3.53;;
71108;SDS011;59614;51.012;-1.648;2023-07-13T13:44:38;10.27;;;3.55;;
71108;SDS011;59614;51.012;-1.648;2023-07-13T13:47:07;9.95;;;3.78;;
71108;SDS011;59614;51.012;-1.648;2023-07-13T13:49:54;15.48;;;3.80;;
71108;SDS011;59614;51.012;-1.648;2023-07-13T13:52:20;13.43;;;4.10;;
71108;SDS011;59614;51.012;-1.648;2023-07-13T13:54:45;10.50;;;3.63;;
71108;SDS011;59614;51.012;-1.648;2023-07-13T13:57:11;10.93;;;3.55;;
71108;SDS011;59614;51.012;-1.648;2023-07-13T13:59:37;14.68;;;3.65;;
71108;SDS011;59614;51.012;-1.648;2023-07-13T14:02:11;7.07;;;3.03;;
71108;SDS011;59614;51.012;-1.648;2023-07-13T14:04:47;10.63;;;3.00;;
71108;SDS011;59614;51.012;-1.648;2023-07-13T14:07:15;9.07;;;2.80;;
71108;SDS011;59614;51.012;-1.648;2023-07-13T14:09:41;6.35;;;2.55;;
71108;SDS011;59614;51.012;-1.648;2023-07-13T14:12:08;9.82;;;2.90;;
71108;SDS011;59614;51.012;-1.648;2023-07-13T14:14:37;11.45;;;3.03;;
71108;SDS011;59614;51.012;-1.648;2023-07-13T14:17:03;9.23;;;3.13;;
71108;SDS011;59614;51.012;-1.648;2023-07-13T14:19:29;10.23;;;3.00;;
71108;SDS011;59614;51.012;-1.648;2023-07-13T14:21:55;11.57;;;3.00;;
71108;SDS011;59614;51.012;-1.648;2023-07-13T14:24:20;9.65;;;3.17;;
71108;SDS011;59614;51.012;-1.648;2023-07-13T14:26:46;5.85;;;2.90;;
71108;SDS011;59614;51.012;-1.648;2023-07-13T14:29:16;10.73;;;3.58;;
71108;SDS011;59614;51.012;-1.648;2023-07-13T14:31:43;8.82;;;3.00;;
71108;SDS011;59614;51.012;-1.648;2023-07-13T14:34:12;5.93;;;2.90;;
71108;SDS011;59614;51.012;-1.648;2023-07-13T14:36:43;8.32;;;3.10;;
71108;SDS011;59614;51.012;-1.648;2023-07-13T14:41:39;9.02;;;2.67;;
71108;SDS011;59614;51.012;-1.648;2023-07-13T14:44:11;6.72;;;2.65;;
71108;SDS011;59614;51.012;-1.648;2023-07-13T14:46:38;5.55;;;2.50;;
71108;SDS011;59614;51.012;-1.648;2023-07-13T14:49:04;8.15;;;2.35;;
71108;SDS011;59614;51.012;-1.648;2023-07-13T14:51:35;6.80;;;2.30;;
71108;SDS011;59614;51.012;-1.648;2023-07-13T14:54:02;5.15;;;2.15;;
71108;SDS011;59614;51.012;-1.648;2023-07-13T14:56:29;5.55;;;2.10;;
71108;SDS011;59614;51.012;-1.648;2023-07-13T14:58:55;5.18;;;2.10;;
71108;SDS011;59614;51.012;-1.648;2023-07-13T15:01:20;3.90;;;1.88;;
71108;SDS011;59614;51.012;-1.648;2023-07-13T15:03:48;9.98;;;3.08;;
71108;SDS011;59614;51.012;-1.648;2023-07-13T15:06:15;6.50;;;2.17;;
71108;SDS011;59614;51.012;-1.648;2023-07-13T15:08:42;5.70;;;2.13;;
71108;SDS011;59614;51.012;-1.648;2023-07-13T15:11:07;3.97;;;1.88;;
71108;SDS011;59614;51.012;-1.648;2023-07-13T15:13:36;4.22;;;1.90;;
71108;SDS011;59614;51.012;-1.648;2023-07-13T15:16:04;6.63;;;1.90;;
71108;SDS011;59614;51.012;-1.648;2023-07-13T15:18:35;2.97;;;1.70;;
71108;SDS011;59614;51.012;-1.648;2023-07-13T15:21:03;3.33;;;1.85;;
71108;SDS011;59614;51.012;-1.648;2023-07-13T15:23:29;2.83;;;1.90;;
71108;SDS011;59614;51.012;-1.648;2023-07-13T15:25:54;3.97;;;1.95;;
71108;SDS011;59614;51.012;-1.648;2023-07-13T15:28:20;5.55;;;2.10;;